• Join FlightAware (Why Join?)
  • Login
  • US Flag GB Flag 
02:08 EDT


 

Airport Tracker/Info


-or-


 

Live Flight TrackerFlight Track Log ✈ UAL464 ✈ 12-May-2013 ✈ KPDX - KORD

Flight Track Log - Related Links

Times and Time Zones

All times are in EDT time to prevent confusion due to time zone crossing. See the UAL464 flight status page for this flight to view local times or setup timezone preferences in your user account.

Time Position Orientation Groundspeed Altitude Reporting Facility
EDT Latitude Longitude Course Direction KTS MPH feet Rate Location/Type
16:54 45.5831 -122.5653 90° East 156 180 800  Level Seattle Center
16:55 45.5617 -122.4383 103° East 259 298 3,200 1,980 Climbing Seattle Center
16:56 45.5514 -122.3700 102° East 242 278 5,300 2,700 Climbing Seattle Center
16:57 45.6946 -121.9760 66° East  Level FlightAware Approximate
16:57 45.5717 -122.2628 75° East 292 336 7,900  Level Seattle Center
16:58 45.7334 -121.8130 90° East  Level FlightAware Approximate
16:58 45.6222 -122.1508 57° Northeast 332 382 10,300  Level Seattle Center
16:59 45.7334 -121.6384 90° East  Level FlightAware Approximate
16:59 45.6769 -122.0197 59° Northeast 385 443 11,700  Level Seattle Center
17:00 45.7331 -121.8864 59° Northeast 405 466 14,100 2,340 Climbing Seattle Center
17:01 45.7464 -121.7303 83° East 395 455 16,500 1,800 Climbing Seattle Center
17:02 45.7450 -121.5628 91° East 418 481 17,800 1,440 Climbing Seattle Center
17:03 45.7436 -121.3906 91° East 432 497 19,500 1,500 Climbing Seattle Center
17:04 45.7422 -121.2122 91° East 444 511 20,900 1,320 Climbing Seattle Center
17:05 45.7411 -121.0308 90° East 452 520 22,300 1,380 Climbing Seattle Center
17:06 45.7375 -120.8061 91° East 466 536 23,800 1,380 Climbing Seattle Center
17:07 45.7344 -120.6142 91° East 476 548 25,200 1,200 Climbing Seattle Center
17:08 45.7317 -120.4217 91° East 480 552 26,300 1,020 Climbing Seattle Center
17:09 45.7275 -120.2250 92° East 488 562 27,300 900 Climbing Seattle Center
17:10 45.7250 -120.0256 91° East 495 570 28,200 960 Climbing Seattle Center
17:11 45.7206 -119.8231 92° East 502 578 29,300 1,140 Climbing Seattle Center
17:12 45.7153 -119.6197 92° East 508 585 30,500 1,200 Climbing Seattle Center
17:13 45.7108 -119.4189 92° East 505 581 31,800 1,260 Climbing Seattle Center
17:14 45.7061 -119.2203 92° East 500 575 33,100 1,020 Climbing Seattle Center
17:15 45.7028 -119.0253 91° East 493 567 33,900 900 Climbing Seattle Center
17:16 45.7258 -118.8308 80° East 496 571 35,000 540 Climbing Seattle Center
17:17 45.7422 -118.6347 83° East 498 573 35,000 -60 Level Seattle Center
17:18 45.7483 -118.4422 87° East 500 575 34,900 -60 Descending Seattle Center
17:19 45.7547 -118.2456 87° East 498 573 34,900  Level Seattle Center
17:20 45.7592 -118.0494 88° East 496 571 34,900  Level Seattle Center
17:21 45.7653 -117.8558 87° East 492 566 34,900  Level Seattle Center
17:22 45.7711 -117.6603 87° East 494 568 35,000  Climbing Seattle Center
17:23 45.7769 -117.4233 88° East 496 571 34,900  Descending Seattle Center
17:24 45.7811 -117.2275 88° East 495 570 35,000  Climbing Seattle Center
17:25 45.7853 -117.0325 88° East 493 567 34,900 -60 Descending Seattle Center
17:26 45.7889 -116.8356 88° East 495 570 34,900  Level Seattle Center
17:27 45.7922 -116.6417 89° East 492 566 34,900  Level Seattle Center
17:28 45.7961 -116.4442 88° East 497 572 34,900  Level Seattle Center
17:29 45.7983 -116.2492 89° East 494 568 34,900  Level Seattle Center
17:30 45.8017 -116.0536 89° East 495 570 34,900  Level Seattle Center
17:31 45.8033 -115.8592 89° East 492 566 34,900  Level Seattle Center
17:32 45.8050 -115.6622 89° East 495 570 34,900  Level Seattle Center
17:33 45.8075 -115.4514 89° East 492 566 35,000  Climbing Seattle Center
17:34 45.8097 -115.2689 89° East 485 558 35,000  Level Seattle Center
17:36 45.8111 -115.0222 89° East 488 562 35,000  Level Salt Lake Center
17:37 45.8122 -114.8364 89° East 487 560 35,000  Level Salt Lake Center
17:38 45.8108 -114.6147 90° East 493 567 35,000  Level Salt Lake Center
17:39 45.8106 -114.4294 90° East 488 562 35,000 -60 Level Salt Lake Center
17:40 45.8100 -114.2322 90° East 487 560 34,900 -60 Descending Salt Lake Center
17:41 45.8100 -114.0381 90° East 488 562 34,900  Level Salt Lake Center
17:42 45.8083 -113.8453 91° East 487 560 34,900  Level Salt Lake Center
17:43 45.8067 -113.6244 91° East 488 562 35,000  Climbing Salt Lake Center
17:44 45.8014 -113.4300 92° East 487 560 35,000  Level Salt Lake Center
17:45 45.8000 -113.2342 91° East 491 565 35,000  Level Salt Lake Center
17:46 45.7981 -113.0372 91° East 493 567 35,000  Level Salt Lake Center
17:47 45.7961 -112.8417 91° East 492 566 35,000 -60 Level Salt Lake Center
17:48 45.7925 -112.6467 91° East 491 565 34,900  Descending Salt Lake Center
17:49 45.7883 -112.4175 91° East 482 555 35,000  Climbing Salt Lake Center
17:50 45.7856 -112.2228 91° East 487 560 35,000  Level Salt Lake Center
17:51 45.7814 -112.0311 92° East 484 557 35,000  Level Salt Lake Center
17:52 45.7767 -111.8403 92° East 483 556 35,000  Level Salt Lake Center
17:53 45.7719 -111.6492 92° East 482 555 35,000  Level Salt Lake Center
17:54 45.7669 -111.4583 92° East 481 554 35,000  Level Salt Lake Center
17:55 45.7611 -111.2694 92° East 480 552 35,000  Level Salt Lake Center
17:56 45.7550 -111.0497 92° East 488 562 35,000  Level Salt Lake Center
17:57 45.7492 -110.8603 92° East 483 556 35,000  Level Salt Lake Center
17:58 45.7433 -110.6725 92° East 475 547 35,000  Level Salt Lake Center
17:59 45.7369 -110.4869 93° East 473 544 35,000  Level Salt Lake Center
18:00 45.7292 -110.2761 93° East 474 545 35,000  Level Salt Lake Center
18:01 45.7219 -110.0928 93° East 480 552 35,000  Level Salt Lake Center
18:02 45.7136 -109.8819 93° East 477 549 35,000  Level Salt Lake Center
18:03 45.7061 -109.6997 93° East 475 547 35,000 -60 Level Salt Lake Center
18:04 45.6983 -109.5197 93° East 472 543 34,900  Descending Salt Lake Center
18:05 45.6881 -109.3106 94° East 474 545 35,000  Climbing Salt Lake Center
18:06 45.6794 -109.1297 94° East 474 545 34,900  Descending Salt Lake Center
18:07 45.6683 -108.9200 94° East 474 545 35,000 60 Climbing Salt Lake Center
18:08 45.6592 -108.7378 94° East 480 552 35,100 480 Climbing Salt Lake Center
18:09 45.6489 -108.5561 95° East 478 550 36,100 900 Climbing Salt Lake Center
18:10 45.6403 -108.3494 93° East 467 537 37,000 420 Climbing Salt Lake Center
18:11 45.6292 -108.1708 95° East 469 540 37,000  Level Salt Lake Center
18:12 45.6192 -107.9947 95° East 465 535 37,000  Level Salt Lake Center
18:13 45.6072 -107.7864 95° East 469 540 37,000  Level Salt Lake Center
18:14 45.5967 -107.6083 95° East 468 539 37,000  Level Salt Lake Center
18:15 45.5831 -107.3997 95° East 470 541 37,000  Level Salt Lake Center
18:17 45.5719 -107.2228 95° East 467 537 37,000  Level Salt Lake Center
18:18 45.5589 -107.0425 96° East 474 545 37,000  Level Salt Lake Center
18:19 45.5444 -106.8358 96° East 471 542 37,000  Level Salt Lake Center
18:20 45.5356 -106.6628 94° East 463 533 37,000  Level Salt Lake Center
18:21 45.5228 -106.4903 96° East 459 528 37,000 -60 Level Salt Lake Center
18:22 45.5075 -106.2869 96° East 460 529 36,900  Descending Salt Lake Center
18:23 45.4958 -106.1122 95° East 462 532 37,000  Climbing Salt Lake Center
18:24 45.4797 -105.9064 96° East 468 539 37,000  Level Salt Lake Center
18:25 45.4650 -105.7289 97° East 471 542 37,000  Level Salt Lake Center
18:26 45.4511 -105.5508 96° East 474 545 37,000  Level Salt Lake Center
18:27 45.4344 -105.3444 96° East 471 542 37,000  Level Salt Lake Center
18:28 45.4208 -105.1656 96° East 474 545 37,000  Level Salt Lake Center
18:29 45.4022 -104.9564 97° East 475 547 37,000  Level Salt Lake Center
18:30 45.3869 -104.7806 97° East 471 542 37,000 -60 Level Salt Lake Center
18:31 45.3725 -104.6078 97° East 464 534 36,900 -60 Descending Salt Lake Center
18:32 45.3547 -104.4208 98° East 463 533 36,900  Level Salt Lake Center
18:33 45.3392 -104.2414 97° East 461 531 36,900  Level Salt Lake Center
18:34 45.3219 -104.0594 98° East 465 535 36,900  Level Salt Lake Center
18:35 45.3042 -103.8775 98° East 466 536 36,900  Level Salt Lake Center
18:36 45.2839 -103.6597 97° East 465 535 36,900  Level Salt Lake Center
18:37 45.2664 -103.4772 98° East 467 537 36,900  Level Salt Lake Center
18:38 45.2481 -103.2972 98° East 465 535 36,900  Level Salt Lake Center
18:39 45.2214 -103.0375 98° East 466 536 36,900  Level Minneapolis Center
18:40 45.2031 -102.8550 98° East 468 539 37,000  Climbing Minneapolis Center
18:42 45.1833 -102.6714 99° East 470 541 37,000  Level Minneapolis Center
18:43 45.1642 -102.4889 98° East 471 542 37,000  Level Minneapolis Center
18:44 45.1411 -102.2725 99° East 466 536 37,000  Level Minneapolis Center
18:45 45.1203 -102.0919 99° East 465 535 37,000  Level Minneapolis Center
18:46 45.0992 -101.9097 99° East 468 539 37,000  Level Minneapolis Center
18:47 45.0781 -101.7294 99° East 468 539 37,000  Level Minneapolis Center
18:48 45.0342 -101.5500 109° East 479 551 37,000  Level Minneapolis Center
18:49 44.9878 -101.3736 110° East 480 552 37,000  Level Minneapolis Center
18:50 44.9400 -101.1969 111° Southeast 482 555 37,000 -60 Level Minneapolis Center
18:51 44.8853 -100.9878 110° East 479 551 36,900  Descending Minneapolis Center
18:52 44.8378 -100.8131 111° Southeast 478 550 37,000  Climbing Minneapolis Center
18:53 44.7889 -100.6383 111° Southeast 481 554 37,000  Level Minneapolis Center
18:54 44.7414 -100.4636 111° Southeast 482 555 37,000  Level Minneapolis Center
18:55 44.6939 -100.2906 111° Southeast 480 552 37,000  Level Minneapolis Center
18:56 44.6356 -100.0836 112° Southeast 480 552 37,000  Level Minneapolis Center
18:57 44.5869 -99.9114 112° Southeast 479 551 37,000  Level Minneapolis Center
18:58 44.5392 -99.7400 111° Southeast 478 550 37,000  Level Minneapolis Center
18:59 44.4900 -99.5667 112° Southeast 480 552 37,000  Level Minneapolis Center
19:00 44.4408 -99.3947 112° Southeast 479 551 37,000  Level Minneapolis Center
19:01 44.3822 -99.1875 112° Southeast 478 550 37,000  Level Minneapolis Center
19:02 44.3306 -99.0156 113° Southeast 481 554 37,000  Level Minneapolis Center
19:03 44.2814 -98.8414 111° Southeast 483 556 37,000  Level Minneapolis Center
19:04 44.2297 -98.6686 113° Southeast 484 557 37,000  Level Minneapolis Center
19:05 44.1789 -98.5003 113° Southeast 481 554 37,000  Level Minneapolis Center
19:06 44.1278 -98.3283 112° Southeast 483 556 37,000  Level Minneapolis Center
19:07 44.0653 -98.1239 113° Southeast 480 552 37,000  Level Minneapolis Center
19:08 44.0142 -97.9525 112° Southeast 481 554 37,000  Level Minneapolis Center
19:09 43.9633 -97.7842 113° Southeast 477 549 37,000  Level Minneapolis Center
19:10 43.9106 -97.6161 114° Southeast 478 550 37,000  Level Minneapolis Center
19:11 43.8594 -97.4464 113° Southeast 479 551 37,000  Level Minneapolis Center
19:12 43.8064 -97.2786 114° Southeast 478 550 37,000  Level Minneapolis Center
19:14 43.7436 -97.0781 113° Southeast 476 548 37,000  Level Minneapolis Center
19:15 43.7175 -96.9081 102° East 458 527 37,000  Level Minneapolis Center
19:16 43.6981 -96.7408 99° East 446 513 37,000  Level Minneapolis Center
19:17 43.6786 -96.5736 99° East 444 511 37,000  Level Minneapolis Center
19:18 43.6589 -96.4064 99° East 445 512 37,000  Level Minneapolis Center
19:19 43.6381 -96.2392 100° East 446 513 37,000  Level Minneapolis Center
19:20 43.6136 -96.0378 99° East 447 514 37,000  Level Minneapolis Center
19:21 43.5931 -95.8719 100° East 444 511 37,000  Level Minneapolis Center
19:22 43.5731 -95.7092 100° East 438 504 37,000  Level Minneapolis Center
19:23 43.5519 -95.5436 100° East 439 505 37,000  Level Minneapolis Center
19:24 43.5314 -95.3814 100° East 435 501 37,000  Level Minneapolis Center
19:25 43.5100 -95.2169 100° East 438 504 37,000  Level Minneapolis Center
19:26 43.4831 -95.0192 101° East 439 505 37,000  Level Minneapolis Center
19:27 43.4617 -94.8561 100° East 437 503 37,000  Level Minneapolis Center
19:28 43.4394 -94.6917 100° East 438 504 37,000  Level Minneapolis Center
19:29 43.4169 -94.5289 101° East 436 502 37,000 -60 Level Minneapolis Center
19:30 43.3942 -94.3656 101° East 437 503 36,900  Descending Minneapolis Center
19:31 43.3703 -94.1942 101° East 438 504 37,000  Climbing Minneapolis Center
19:32 43.3447 -94.0289 102° East 443 510 37,000  Level Minneapolis Center
19:33 43.3217 -93.8656 101° East 443 510 37,000  Level Minneapolis Center
19:34 43.2969 -93.7014 102° East 442 509 37,000  Level Minneapolis Center
19:35 43.2706 -93.5042 100° East 441 507 37,000  Level Minneapolis Center
19:36 43.2461 -93.3375 101° East 445 512 37,000  Level Minneapolis Center
19:37 43.2194 -93.1697 102° East 450 518 37,000  Level Minneapolis Center
19:38 43.1956 -92.9994 101° East 455 524 37,000  Level Minneapolis Center
19:39 43.1694 -92.8278 102° East 461 531 37,000  Level Minneapolis Center
19:40 43.1425 -92.6531 102° East 469 540 37,000 -240 Level Minneapolis Center
19:41 43.1167 -92.4797 101° East 471 542 36,600 -840 Descending Minneapolis Center
19:42 43.0844 -92.2789 102° East 456 525 35,400 -1,080 Descending Minneapolis Center
19:43 43.0581 -92.1092 102° East 459 528 34,400 -1,860 Descending Minneapolis Center
19:44 43.0306 -91.9389 102° East 459 528 31,600 -1,740 Descending Minneapolis Center
19:45 43.0031 -91.7639 102° East 464 534 30,900 -660 Descending Minneapolis Center
19:46 42.9756 -91.5847 102° East 473 544 30,300 -600 Descending Minneapolis Center
19:47 42.9467 -91.4069 102° East 475 547 29,700 -540 Descending Minneapolis Center
19:48 42.9178 -91.2297 102° East 476 548 29,200 -360 Descending Minneapolis Center
19:49 42.8892 -91.0486 102° East 485 558 29,000 -180 Descending Minneapolis Center
19:50 42.8722 -90.9419 102° East 489 563 29,000  Level Chicago Center
19:51 42.8364 -90.7242 103° East 493 567 29,000  Level Chicago Center
19:52 42.8053 -90.5425 103° East 496 571 29,000  Level Chicago Center
19:53 42.7747 -90.3594 103° East 498 573 29,000 -300 Level Chicago Center
19:54 42.7425 -90.1761 103° East 500 575 28,400 -1,380 Descending Chicago Center
19:55 42.7122 -89.9928 103° East 501 577 26,200 -2,520 Descending Chicago Center
19:56 42.6803 -89.8008 103° East 482 555 23,300 -2,460 Descending Chicago Center
19:57 42.6444 -89.6011 104° East 470 541 21,200 -1,920 Descending Chicago Center
19:58 42.6036 -89.4364 109° East 464 534 19,400 -1,920 Descending Chicago Center
19:59 42.5658 -89.2781 108° East 450 518 17,300 -2,100 Descending Chicago Center
20:00 42.5292 -89.1267 108° East 428 493 15,100 -1,800 Descending Chicago Center
20:01 42.4939 -88.9814 108° East 411 473 13,600 -1,500 Descending Chicago Center
20:02 42.4528 -88.8169 109° East 397 457 12,100 -1,260 Descending Chicago Center
20:04 42.4186 -88.6781 108° East 391 450 11,100 -1,020 Descending Chicago Center
20:05 42.3867 -88.5475 108° East 368 423 10,000 -1,020 Descending Chicago Center
20:06 42.3425 -88.4539 123° Southeast 318 366 9,000 -540 Descending Chicago Center
20:07 42.2744 -88.4281 164° South 281 323 9,000 -540 Level Chicago Center
20:08 42.1939 -88.4139 173° South 246 283 8,000 -780 Descending Chicago Center
20:09 42.1358 -88.4064 175° South 217 250 7,500 -780 Descending Chicago Center
20:10 42.0828 -88.4008 176° South 196 226 6,400 -780 Descending Chicago Center
20:11 42.0300 -88.3883 170° South 195 224 6,000 -360 Descending Chicago Center
20:12 41.9794 -88.3708 166° South 193 222 5,700 -420 Descending Chicago Center
20:13 41.9672 -88.2828 101° East 206 237 5,200 -480 Descending Chicago Center
20:14 41.9672 -88.2114 90° East 194 223 4,800 -780 Descending Chicago Center
20:15 41.9678 -88.1383 89° East 195 224 3,700 -1,140 Descending Chicago Center
20:16 41.9667 -88.0500 91° East 178 205 2,500 -1,020 Descending Chicago TRACON
20:17 41.9667 -88.0000 90° East 152 175 1,600 -840 Descending Chicago TRACON
20:18 41.9667 -87.9500 90° East 135 155 900 -720 Descending Chicago TRACON